[Jeden 2. Donnerstag im Monat | 18:00z - 20:00z | EDDS - LSGG] Minors on Stage

Zu Eventkalender hinzugefügt: 12 Daten

Cedric Mohler

1452943
RG Frankfurt - NAV
RG Frankfurt - Mentor

The Swabian Jura is too low? Why not flying to the Swiss Alps! From sparingly Swabians to the rich Genevan - in less than an hour. Or in the reverse direction from the scenic Lake Geneva to one of the biggest urban centers in Germany.
Thats now possible every second Thursday of the month from 18-20z with full ATC. vACC Switzerland and RG Frankfurt are proudly presenting the monthly connection between Stuttgart (EDDS) and Geneva (LSGG).

Exciting approaches, changing landscapes en-route and well trained controllers will make this trip a memorable one. So take your airliner or business jet - general aviation or scheduled flight - every pilot is welcome!



Die schwäbische Alb ist zu niedrig? Wieso nicht mal in die Alpen fliegen! Von den sparsamen Schwaben ins reiche Genf - in weniger als einer Stunde. Oder den umgekehrten Weg vom malerischen Genfersee zu einem der grössten Ballungsräume Deutschlands.
Das ist jetzt jeden zweiten Donnerstag im Monat von 20-22 LT mit voller ATC-Abdeckung möglich! Die vACC Schweiz präsentiert mit der RG Frankfurt die monatliche Verbindung zwischen Stuttgart (EDDS) und Genf (LSGG).

Spannende Anflüge, eine abwechslungsreiche Route und top ausgebildete Controller werden einen unvergesslichen Flug ermöglichen. Steigt ein, in euren Airliner oder Businessjet, egal ob Privatflug oder Linie, jeder Flieger ist willkommen!


Routes
LSGG - EDDS (even levels)
MOLUS UN871 DITON T163 ZUE T125 ARSUT T125 REUTL (FL200-FL320)
MOLUS N871 DITON T163 ZUE T125 REUTL (FL140-FL180)

EDDS - LSGG (odd levels)
Jet:
ROTWE Y126 TUBLO N850 NATOR UN869 BENOT (FL250+)
ROTWE Y126 TUBLO N850 NATOR N869 RINLI UN869 BENOT (FL210-FL230)
ROTWE Y126 TUBLO N850 NATOR N869 BENOT (FL130-FL190)
Piston/Turboprop:
SUL Y125 NATOR and continue as above.



Airport information, Scenery & Charts
LSGG - Geneva
EDDS - Stuttgart
 
Zuletzt bearbeitet:

Sebastian Kramer

1289607
RG Bremen - NAV
RG Bremen - Mentor

Hamburg wird wie jeden Donnerstag ebenfalls für euch da sein
 

Cedric Mohler

1452943
RG Frankfurt - NAV
RG Frankfurt - Mentor
Heute Abend freuen wir uns wieder auf Minors on Stage zwischen Genf und Stuttgart! Packt eure Flugzeuge aus und genießt sowohl in Stuttgart als auch in Genf starke Winde und top Service!
LSGG 131125Z 1312/1418 24014KT 9999 -RA BKN050
TEMPO 1315/1324 27020G35KT SHRA SCT050TCU
BECMG 1406/1408 VRB03KT
EDDS 131100Z 1312/1412 17009KT CAVOK
TEMPO 1313/1317 22015G25KT 4000 RA
TEMPO 1317/1403 21015G25KT 4000 SHRA BKN020CB
PROB30 TEMPO 1317/1321 25020G40KT TSRA
BECMG 1321/1324 24010KT
 

Paul Hollmann

1450775
RG Frankfurt - Event

Heute wieder: Minors on Stage mit einer super Besetzung
TAF TAF EDDS 120500Z 1206/1306 21006KT 9999 SCT040
BECMG 1206/1209 23012KT
BECMG 1209/1211 24015G25KT PROB30
TEMPO 1213/1220 DZRA BKN012
BECMG 1216/1219 27009KT
TAF LSGG 120825Z 1209/1315 25006KT 9999 FEW040 SCT070 TX17/1215Z TN07/1306Z TX13/1315Z
BECMG 1308/1310 05007KT
 
Zuletzt bearbeitet von einem Moderator:
Oben